createdAt,value
2022-11-17T00:02:16.673Z,30.05
2022-11-17T00:04:45.912Z,29.73
2022-11-17T00:07:15.382Z,29.33
2022-11-17T00:09:43.441Z,30.55
2022-11-17T00:12:32.848Z,29.15
2022-11-17T00:15:01.229Z,26.45
2022-11-17T00:17:29.363Z,27.45
2022-11-17T00:20:14.492Z,25.80
2022-11-17T00:22:44.092Z,26.77
2022-11-17T00:25:12.193Z,27.50
2022-11-17T00:27:40.367Z,26.40
2022-11-17T00:30:09.454Z,28.08
2022-11-17T00:32:54.814Z,27.42
2022-11-17T00:35:22.819Z,26.13
2022-11-17T00:38:06.045Z,21.50
2022-11-17T00:40:34.060Z,24.42
2022-11-17T00:43:02.039Z,24.02
2022-11-17T00:45:30.286Z,25.83
2022-11-17T00:47:58.504Z,24.90
2022-11-17T00:50:26.675Z,25.17
2022-11-17T00:52:56.290Z,23.33
2022-11-17T00:55:24.483Z,26.08
2022-11-17T00:57:52.634Z,27.17
2022-11-17T01:00:21.775Z,25.70
2022-11-17T01:02:49.931Z,25.23
2022-11-17T01:05:18.180Z,24.65
2022-11-17T01:07:47.075Z,24.65
2022-11-17T01:10:16.576Z,25.75
2022-11-17T01:12:44.552Z,28.02
2022-11-17T01:15:12.568Z,26.33
2022-11-17T01:17:40.558Z,24.33
2022-11-17T01:20:10.329Z,27.20
2022-11-17T01:22:38.360Z,24.63
2022-11-17T01:25:07.328Z,23.75
2022-11-17T01:27:36.765Z,27.23
2022-11-17T01:30:05.508Z,25.65
2022-11-17T01:32:33.549Z,25.02
2022-11-17T01:35:01.521Z,24.88
2022-11-17T01:37:29.509Z,24.67
2022-11-17T01:39:57.476Z,24.98
2022-11-17T01:42:27.555Z,22.75
2022-11-17T01:45:03.096Z,26.27
2022-11-17T01:47:37.163Z,24.88
2022-11-17T01:50:11.401Z,23.25
2022-11-17T01:52:41.199Z,23.58
2022-11-17T01:55:11.084Z,26.85
2022-11-17T01:57:45.126Z,26.00
2022-11-17T02:00:15.588Z,27.15
2022-11-17T02:02:44.968Z,31.67
2022-11-17T02:05:25.247Z,32.83
2022-11-17T02:07:56.495Z,32.10
2022-11-17T02:10:24.624Z,30.35
2022-11-17T02:12:54.529Z,31.55
2022-11-17T02:15:24.932Z,32.50
2022-11-17T02:17:54.375Z,31.30
2022-11-17T02:20:32.077Z,36.63
2022-11-17T02:23:39.510Z,35.63
2022-11-17T02:26:31.293Z,35.30
2022-11-17T02:29:06.019Z,31.02
2022-11-17T02:31:45.070Z,34.53
2022-11-17T02:34:25.538Z,31.65
2022-11-17T02:37:01.862Z,29.60
2022-11-17T02:39:38.457Z,30.83
2022-11-17T02:42:12.503Z,29.95
2022-11-17T02:44:47.801Z,29.48
2022-11-17T02:47:21.614Z,27.83
2022-11-17T02:49:54.941Z,26.90
2022-11-17T02:52:24.554Z,28.83
2022-11-17T02:54:52.590Z,27.88
2022-11-17T02:57:31.221Z,27.80
2022-11-17T03:00:03.647Z,27.73
2022-11-17T03:02:50.545Z,28.45
2022-11-17T03:05:24.459Z,25.55
2022-11-17T03:08:10.328Z,26.55
2022-11-17T03:11:03.515Z,23.45
2022-11-17T03:16:17.158Z,22.48
2022-11-17T03:18:59.909Z,25.63
2022-11-17T03:21:33.767Z,23.92
2022-11-17T03:24:05.848Z,25.52
2022-11-17T03:26:41.930Z,25.27
2022-11-17T03:29:14.438Z,25.60
2022-11-17T03:31:46.782Z,24.77
2022-11-17T03:34:17.964Z,27.13
2022-11-17T03:36:52.797Z,25.92
2022-11-17T03:39:27.049Z,29.27
2022-11-17T03:42:00.108Z,27.48
2022-11-17T03:44:30.465Z,30.58
2022-11-17T03:47:15.309Z,29.80
2022-11-17T03:49:48.764Z,29.52
2022-11-17T03:52:17.274Z,29.23
2022-11-17T03:54:45.357Z,25.35
2022-11-17T03:57:18.376Z,25.75
2022-11-17T03:59:53.244Z,25.48
2022-11-17T04:02:23.770Z,23.70
2022-11-17T04:05:07.142Z,24.33
2022-11-17T04:07:36.629Z,23.25
2022-11-17T04:10:05.930Z,23.60
2022-11-17T04:12:51.625Z,26.67
2022-11-17T04:15:37.144Z,26.98
2022-11-17T04:18:07.215Z,25.58
2022-11-17T04:20:37.103Z,24.80
2022-11-17T04:23:25.321Z,25.65
2022-11-17T04:26:12.459Z,24.65
2022-11-17T04:28:43.821Z,24.67
2022-11-17T04:31:13.981Z,25.60
2022-11-17T04:33:45.340Z,24.15
2022-11-17T04:36:16.484Z,25.45
2022-11-17T04:38:45.916Z,25.75
2022-11-17T04:41:33.061Z,24.85
2022-11-17T04:44:01.429Z,26.63
2022-11-17T04:46:32.163Z,25.48
2022-11-17T04:49:02.697Z,27.23
2022-11-17T04:51:31.308Z,28.27
2022-11-17T04:53:59.646Z,26.92
2022-11-17T04:56:30.175Z,28.90
2022-11-17T04:59:00.183Z,28.10
2022-11-17T05:01:29.136Z,29.10
2022-11-17T05:03:58.953Z,27.77
2022-11-17T05:06:32.166Z,29.60
2022-11-17T05:09:02.181Z,28.50
2022-11-17T05:11:49.004Z,25.23
2022-11-17T05:14:19.067Z,24.77
2022-11-17T05:17:08.984Z,23.85
2022-11-17T05:19:40.112Z,23.35
2022-11-17T05:22:24.787Z,22.88
2022-11-17T05:24:53.217Z,22.77
2022-11-17T05:27:21.525Z,24.13
2022-11-17T05:29:49.550Z,24.88
2022-11-17T05:32:17.626Z,22.08
2022-11-17T05:34:46.046Z,25.98
2022-11-17T05:37:15.452Z,24.00
2022-11-17T05:39:43.451Z,24.75
2022-11-17T05:42:11.582Z,23.60
2022-11-17T05:44:40.189Z,23.52
2022-11-17T05:47:08.581Z,25.35
2022-11-17T05:49:36.767Z,25.63
2022-11-17T05:52:04.845Z,24.50
2022-11-17T05:54:34.288Z,22.48
2022-11-17T05:57:08.649Z,24.02
2022-11-17T05:59:40.751Z,21.95
2022-11-17T06:02:13.284Z,23.33
2022-11-17T06:04:41.392Z,25.02
2022-11-17T06:07:09.884Z,24.05
2022-11-17T06:09:42.644Z,23.67
2022-11-17T06:12:12.157Z,21.67
2022-11-17T06:14:40.314Z,20.85
2022-11-17T06:17:17.549Z,24.23
2022-11-17T06:19:56.602Z,24.88
2022-11-17T06:22:26.623Z,22.48
2022-11-17T06:24:56.836Z,21.42
2022-11-17T06:27:45.028Z,21.88
2022-11-17T06:30:13.428Z,22.60
2022-11-17T06:32:44.367Z,22.92
2022-11-17T06:35:16.559Z,24.48
2022-11-17T06:37:44.615Z,23.65
2022-11-17T06:40:34.228Z,21.98
2022-11-17T06:43:08.490Z,23.75
2022-11-17T06:45:37.012Z,21.27
2022-11-17T06:48:06.056Z,23.50
2022-11-17T06:50:34.854Z,23.35
2022-11-17T06:53:07.123Z,23.90
2022-11-17T06:55:37.207Z,23.60
2022-11-17T06:58:07.536Z,23.60
2022-11-17T07:00:37.037Z,22.15
2022-11-17T07:03:06.899Z,22.17
2022-11-17T07:05:36.231Z,23.35
2022-11-17T07:08:08.243Z,24.35
2022-11-17T07:10:38.072Z,23.25
2022-11-17T07:13:06.075Z,22.85
2022-11-17T07:15:34.096Z,22.02
2022-11-17T07:18:02.133Z,22.70
2022-11-17T07:20:30.121Z,21.27
2022-11-17T07:23:00.618Z,23.58
2022-11-17T07:25:28.818Z,20.98
2022-11-17T07:28:01.863Z,23.75
2022-11-17T07:30:30.141Z,25.83
2022-11-17T07:33:00.055Z,25.42
2022-11-17T07:35:28.259Z,24.15
2022-11-17T07:37:59.761Z,23.35
2022-11-17T07:40:28.099Z,23.88
2022-11-17T07:42:56.205Z,24.63
2022-11-17T07:45:31.425Z,24.17
2022-11-17T07:48:02.655Z,23.80
2022-11-17T07:50:50.862Z,24.58
2022-11-17T07:53:18.904Z,24.20
2022-11-17T07:55:46.881Z,25.92
2022-11-17T07:58:15.137Z,24.33
2022-11-17T08:00:44.582Z,26.27
2022-11-17T08:03:12.727Z,25.70
2022-11-17T08:05:43.539Z,24.88
2022-11-17T08:08:13.627Z,25.48
2022-11-17T08:10:43.088Z,28.92
2022-11-17T08:13:12.859Z,26.05
2022-11-17T08:15:41.398Z,25.75
2022-11-17T08:18:10.844Z,24.48
2022-11-17T08:20:39.083Z,26.02
2022-11-17T08:23:07.062Z,24.45
2022-11-17T08:25:35.064Z,23.13
2022-11-17T08:28:03.039Z,22.52
2022-11-17T08:30:33.718Z,24.83
2022-11-17T08:33:02.213Z,22.70
2022-11-17T08:35:37.467Z,17.13
2022-11-17T08:38:05.907Z,18.35
2022-11-17T08:40:33.932Z,17.35
2022-11-17T08:43:02.128Z,17.98
2022-11-17T08:45:31.632Z,17.70
2022-11-17T08:47:59.938Z,16.42
2022-11-17T08:50:28.322Z,18.88
2022-11-17T08:52:57.722Z,17.63
2022-11-17T08:55:27.402Z,18.23
2022-11-17T08:57:55.478Z,19.25
2022-11-17T09:00:23.847Z,18.75
2022-11-17T09:02:51.987Z,15.80
2022-11-17T09:05:21.319Z,17.88
2022-11-17T09:07:49.714Z,16.80
2022-11-17T09:10:19.588Z,18.15
2022-11-17T09:12:47.669Z,19.77
2022-11-17T09:15:15.676Z,20.48
2022-11-17T09:17:47.823Z,20.92
2022-11-17T09:20:16.446Z,20.30
2022-11-17T09:22:44.449Z,21.30
2022-11-17T09:25:13.668Z,20.23
2022-11-17T09:27:43.189Z,22.58
2022-11-17T09:30:12.306Z,22.63
2022-11-17T09:32:40.316Z,22.48
2022-11-17T09:35:09.522Z,19.33
2022-11-17T09:37:37.559Z,21.33
2022-11-17T09:40:06.555Z,18.83
2022-11-17T09:42:40.180Z,19.02
2022-11-17T09:45:17.740Z,19.60
2022-11-17T09:48:02.311Z,19.08
2022-11-17T09:50:41.735Z,15.95
2022-11-17T09:53:18.443Z,16.23
2022-11-17T09:55:50.420Z,15.55
2022-11-17T09:58:26.839Z,16.25
2022-11-17T10:00:57.402Z,15.63
2022-11-17T10:03:28.883Z,14.35
2022-11-17T10:05:57.367Z,13.68
2022-11-17T10:08:32.933Z,12.65
2022-11-17T10:11:21.034Z,12.95
2022-11-17T10:13:49.831Z,10.82
2022-11-17T10:16:19.285Z,11.85
2022-11-17T10:18:47.317Z,12.25
2022-11-17T10:21:15.373Z,12.00
2022-11-17T10:23:47.603Z,12.52
2022-11-17T10:26:17.050Z,11.73
2022-11-17T10:28:46.074Z,12.30
2022-11-17T10:31:16.001Z,11.18
2022-11-17T10:33:47.006Z,11.55
2022-11-17T10:36:21.221Z,11.05
2022-11-17T10:38:50.941Z,11.80
2022-11-17T10:41:25.118Z,11.40
2022-11-17T10:44:01.242Z,11.15
2022-11-17T10:46:40.631Z,11.43
2022-11-17T10:49:25.985Z,12.07
2022-11-17T10:52:25.487Z,11.27
2022-11-17T10:54:54.163Z,10.88
2022-11-17T10:57:26.756Z,11.68
2022-11-17T10:59:57.790Z,11.68
2022-11-17T11:02:31.454Z,11.55
2022-11-17T11:05:12.917Z,10.35
2022-11-17T11:07:41.906Z,10.10
2022-11-17T11:10:16.004Z,11.30
2022-11-17T11:12:49.176Z,10.30
2022-11-17T11:15:21.906Z,9.48
2022-11-17T11:20:22.314Z,9.25
2022-11-17T11:22:58.522Z,8.65
2022-11-17T11:25:36.093Z,8.40
2022-11-17T11:28:18.861Z,8.90
2022-11-17T11:31:00.525Z,8.68
2022-11-17T11:33:35.588Z,8.95
2022-11-17T11:36:27.769Z,8.48
2022-11-17T11:39:01.791Z,9.47
2022-11-17T11:41:55.552Z,9.23
2022-11-17T11:44:36.393Z,8.80
2022-11-17T11:47:14.945Z,9.68
2022-11-17T11:49:47.342Z,9.82
2022-11-17T11:52:23.446Z,9.32
2022-11-17T11:54:56.366Z,8.85
2022-11-17T11:57:30.739Z,8.63
2022-11-17T12:00:04.650Z,9.52
2022-11-17T12:02:42.757Z,9.50
2022-11-17T12:08:12.931Z,9.07
2022-11-17T12:10:45.494Z,8.95
2022-11-17T12:13:16.158Z,9.50
2022-11-17T12:15:44.419Z,9.27
2022-11-17T12:18:15.805Z,9.32
2022-11-17T12:20:56.496Z,9.23
2022-11-17T12:23:41.123Z,8.35
2022-11-17T12:26:10.038Z,7.97
2022-11-17T12:28:40.335Z,9.40
2022-11-17T12:31:11.994Z,8.95
2022-11-17T12:34:19.525Z,8.57
2022-11-17T12:37:08.584Z,7.68
2022-11-17T12:39:59.841Z,8.65
2022-11-17T12:42:30.663Z,8.85
2022-11-17T12:45:16.659Z,7.55
2022-11-17T12:47:59.547Z,7.43
2022-11-17T12:50:52.907Z,7.38
2022-11-17T12:53:39.907Z,8.13
2022-11-17T12:56:42.660Z,7.75
2022-11-17T12:59:46.652Z,7.93
2022-11-17T13:02:33.729Z,8.48
2022-11-17T13:05:06.268Z,8.20
2022-11-17T13:07:34.321Z,9.15
2022-11-17T13:10:02.931Z,8.75
2022-11-17T13:12:34.177Z,8.15
2022-11-17T13:15:03.902Z,9.15
2022-11-17T13:17:33.878Z,9.05
2022-11-17T13:20:04.334Z,9.00
2022-11-17T13:22:40.486Z,8.85
2022-11-17T13:25:23.017Z,8.70
2022-11-17T13:28:12.351Z,8.93
2022-11-17T13:30:40.706Z,8.77
2022-11-17T13:33:16.579Z,9.18
2022-11-17T13:35:44.571Z,9.05
2022-11-17T13:38:20.183Z,9.30
2022-11-17T13:40:50.076Z,8.40
2022-11-17T13:43:21.823Z,9.73
2022-11-17T13:45:50.564Z,8.97
2022-11-17T13:48:35.282Z,7.78
2022-11-17T13:51:29.044Z,9.15
2022-11-17T13:54:00.214Z,8.25
2022-11-17T13:56:33.386Z,9.15
2022-11-17T13:59:05.713Z,8.15
2022-11-17T14:01:33.980Z,9.40
2022-11-17T14:04:20.421Z,7.80
2022-11-17T14:07:16.563Z,8.55
2022-11-17T14:09:44.773Z,8.70
2022-11-17T14:12:17.831Z,8.65
2022-11-17T14:14:47.199Z,9.45
2022-11-17T14:17:20.406Z,8.95
2022-11-17T14:19:49.215Z,9.73
2022-11-17T14:22:31.520Z,8.88
2022-11-17T14:25:00.148Z,9.75
2022-11-17T14:27:40.099Z,10.50
2022-11-17T14:30:14.947Z,11.95
2022-11-17T14:32:45.008Z,12.10
2022-11-17T14:35:15.451Z,11.52
2022-11-17T14:37:43.708Z,9.68
2022-11-17T14:40:15.220Z,10.80
2022-11-17T14:42:43.315Z,11.48
2022-11-17T14:45:16.741Z,8.80
2022-11-17T14:47:45.059Z,8.63
2022-11-17T14:50:14.998Z,9.43
2022-11-17T14:52:43.259Z,8.50
2022-11-17T14:55:12.141Z,9.88
2022-11-17T14:57:40.471Z,10.02
2022-11-17T15:00:14.544Z,11.43
2022-11-17T15:02:47.373Z,12.55
2022-11-17T15:05:15.935Z,11.23
2022-11-17T15:07:44.038Z,11.93
2022-11-17T15:10:12.398Z,9.40
2022-11-17T15:12:40.364Z,10.73
2022-11-17T15:15:09.090Z,10.73
2022-11-17T15:17:37.080Z,11.20
2022-11-17T15:20:07.739Z,12.38
2022-11-17T15:22:35.837Z,13.85
2022-11-17T15:25:04.018Z,13.68
2022-11-17T15:27:32.032Z,12.75
2022-11-17T15:30:00.004Z,14.98
2022-11-17T15:32:28.040Z,13.82
2022-11-17T15:34:56.224Z,13.82
2022-11-17T15:37:25.903Z,12.80
2022-11-17T15:39:53.924Z,11.77
2022-11-17T15:42:22.114Z,13.27
2022-11-17T15:44:50.138Z,13.98
2022-11-17T15:47:18.167Z,12.05
2022-11-17T15:49:46.891Z,12.15
2022-11-17T15:52:14.919Z,13.13
2022-11-17T15:54:44.308Z,12.20
2022-11-17T15:57:12.467Z,12.48
2022-11-17T15:59:40.584Z,13.52
2022-11-17T16:02:12.144Z,15.18
2022-11-17T16:04:40.355Z,13.27
2022-11-17T16:07:08.457Z,13.95
2022-11-17T16:09:58.032Z,13.98
2022-11-17T16:12:26.298Z,11.48
2022-11-17T16:14:54.425Z,13.20
2022-11-17T16:17:22.600Z,16.15
2022-11-17T16:19:50.821Z,13.38
2022-11-17T16:22:18.903Z,14.48
2022-11-17T16:24:46.917Z,15.48
2022-11-17T16:27:16.345Z,13.82
2022-11-17T16:29:44.773Z,13.15
2022-11-17T16:32:12.788Z,12.57
2022-11-17T16:34:41.651Z,13.10
2022-11-17T16:37:09.688Z,12.85
2022-11-17T16:39:37.942Z,13.65
2022-11-17T16:42:06.116Z,16.02
2022-11-17T16:44:35.975Z,17.13
2022-11-17T16:47:04.496Z,17.95
2022-11-17T16:49:35.080Z,18.33
2022-11-17T16:52:03.148Z,18.10
2022-11-17T16:54:31.359Z,16.33
2022-11-17T16:56:59.425Z,18.95
2022-11-17T16:59:27.422Z,18.10
2022-11-17T17:01:56.792Z,18.85
2022-11-17T17:04:26.153Z,18.23
2022-11-17T17:06:54.584Z,20.75
2022-11-17T17:09:27.619Z,18.73
2022-11-17T17:11:56.045Z,20.48
2022-11-17T17:14:24.105Z,19.83
2022-11-17T17:16:52.638Z,20.05
2022-11-17T17:19:22.456Z,18.83
2022-11-17T17:22:04.531Z,17.23
2022-11-17T17:24:33.012Z,19.70
2022-11-17T17:27:01.832Z,19.30
2022-11-17T17:29:30.146Z,21.23
2022-11-17T17:31:58.493Z,21.83
2022-11-17T17:34:28.090Z,22.05
2022-11-17T17:36:56.313Z,22.30
2022-11-17T17:39:24.772Z,21.15
2022-11-17T17:42:13.329Z,19.75
2022-11-17T17:44:44.789Z,19.77
2022-11-17T17:47:12.917Z,20.95
2022-11-17T17:49:42.769Z,20.95
2022-11-17T17:52:14.003Z,20.70
2022-11-17T17:54:42.716Z,19.75
2022-11-17T17:57:11.172Z,20.15
2022-11-17T17:59:39.761Z,20.40
2022-11-17T18:02:08.006Z,20.77
2022-11-17T18:04:36.425Z,21.42
2022-11-17T18:07:07.935Z,20.67
2022-11-17T18:09:36.468Z,18.70
2022-11-17T18:12:05.430Z,19.17
2022-11-17T18:14:33.895Z,19.90
2022-11-17T18:17:02.540Z,18.08
2022-11-17T18:19:33.436Z,19.63
2022-11-17T18:22:02.061Z,21.30
2022-11-17T18:24:46.735Z,22.02
2022-11-17T18:27:18.270Z,20.80
2022-11-17T18:29:46.451Z,19.67
2022-11-17T18:32:14.829Z,21.33
2022-11-17T18:34:43.360Z,21.50
2022-11-17T18:37:11.805Z,19.25
2022-11-17T18:39:40.246Z,20.52
2022-11-17T18:42:10.048Z,20.58
2022-11-17T18:44:38.081Z,19.05
2022-11-17T18:47:26.530Z,19.92
2022-11-17T18:49:55.062Z,19.40
2022-11-17T18:52:27.197Z,19.63
2022-11-17T18:54:58.861Z,19.38
2022-11-17T18:57:29.226Z,18.23
2022-11-17T18:59:57.711Z,19.73
2022-11-17T19:02:26.208Z,21.45
2022-11-17T19:04:56.755Z,19.05
2022-11-17T19:07:25.335Z,18.45
2022-11-17T19:09:54.193Z,19.85
2022-11-17T19:12:22.852Z,19.63
2022-11-17T19:14:52.804Z,23.98
2022-11-17T19:17:21.299Z,20.58
2022-11-17T19:19:49.783Z,21.35
2022-11-17T19:22:18.295Z,18.92
2022-11-17T19:24:50.527Z,20.85
2022-11-17T19:27:19.089Z,24.88
2022-11-17T19:29:47.650Z,23.10
2022-11-17T19:32:17.466Z,24.13
2022-11-17T19:34:45.512Z,23.67
2022-11-17T19:37:13.994Z,24.08
2022-11-17T19:39:42.059Z,23.80
2022-11-17T19:42:15.218Z,24.23
2022-11-17T19:44:43.747Z,24.05
2022-11-17T19:47:12.340Z,24.10
2022-11-17T19:49:42.226Z,25.90
2022-11-17T19:52:10.754Z,22.85
2022-11-17T19:54:39.318Z,26.05
2022-11-17T19:57:07.981Z,27.27
2022-11-17T19:59:36.823Z,27.65
2022-11-17T20:02:05.336Z,27.88
2022-11-17T20:04:33.801Z,26.25
2022-11-17T20:07:03.695Z,23.80
2022-11-17T20:09:31.850Z,24.75
2022-11-17T20:12:00.341Z,25.65
2022-11-17T20:14:48.912Z,25.60
2022-11-17T20:17:17.000Z,24.67
2022-11-17T20:19:45.851Z,25.77
2022-11-17T20:22:17.898Z,25.85
2022-11-17T20:24:46.376Z,26.77
2022-11-17T20:27:14.844Z,28.60
2022-11-17T20:29:58.020Z,27.42
2022-11-17T20:32:26.635Z,27.65
2022-11-17T20:34:54.966Z,26.80
2022-11-17T20:37:25.209Z,24.77
2022-11-17T20:39:53.271Z,29.17
2022-11-17T20:42:21.714Z,27.83
2022-11-17T20:44:50.241Z,25.33
2022-11-17T20:47:18.643Z,28.75
2022-11-17T20:49:47.627Z,26.83
2022-11-17T20:52:16.179Z,27.17
2022-11-17T20:54:45.939Z,25.23
2022-11-17T20:57:14.325Z,25.33
2022-11-17T20:59:42.601Z,25.80
2022-11-17T21:02:11.974Z,23.52
2022-11-17T21:04:41.986Z,25.00
2022-11-17T21:07:10.083Z,24.63
2022-11-17T21:09:38.092Z,21.95
2022-11-17T21:12:08.118Z,22.23
2022-11-17T21:14:37.085Z,24.15
2022-11-17T21:17:25.285Z,22.10
2022-11-17T21:19:53.518Z,22.55
2022-11-17T21:22:22.024Z,23.00
2022-11-17T21:25:10.416Z,20.73
2022-11-17T21:27:39.855Z,22.92
2022-11-17T21:30:09.167Z,21.65
2022-11-17T21:32:37.159Z,22.90
2022-11-17T21:35:06.289Z,20.70
2022-11-17T21:37:34.416Z,19.50
2022-11-17T21:40:02.800Z,22.65
2022-11-17T21:42:31.001Z,22.35
2022-11-17T21:45:00.415Z,22.45
2022-11-17T21:47:28.396Z,22.10
2022-11-17T21:49:56.403Z,23.73
2022-11-17T21:52:24.368Z,23.23
2022-11-17T21:54:52.354Z,24.85
2022-11-17T21:57:20.385Z,23.52
2022-11-17T21:59:48.671Z,20.25
2022-11-17T22:02:18.017Z,21.50
2022-11-17T22:04:46.083Z,21.50
2022-11-17T22:07:14.111Z,24.35
2022-11-17T22:09:42.305Z,27.55
2022-11-17T22:12:10.417Z,26.20
2022-11-17T22:14:41.991Z,27.15
2022-11-17T22:17:11.076Z,23.73
2022-11-17T22:19:41.165Z,23.50
2022-11-17T22:22:24.509Z,26.75
2022-11-17T22:24:53.034Z,25.70
2022-11-17T22:27:26.624Z,22.48
2022-11-17T22:30:08.995Z,22.02
2022-11-17T22:32:42.463Z,20.85
2022-11-17T22:35:14.937Z,21.10
2022-11-17T22:37:43.537Z,24.88
2022-11-17T22:40:12.968Z,23.58
2022-11-17T22:42:41.256Z,23.45
2022-11-17T22:45:10.689Z,21.13
2022-11-17T22:47:42.545Z,27.65
2022-11-17T22:50:11.781Z,27.00
2022-11-17T22:52:41.166Z,25.75
2022-11-17T22:55:09.785Z,22.48
2022-11-17T22:57:37.792Z,24.17
2022-11-17T23:00:07.086Z,24.23
2022-11-17T23:02:35.069Z,27.55
2022-11-17T23:05:03.084Z,27.45
2022-11-17T23:07:31.113Z,27.15
2022-11-17T23:10:00.524Z,25.98
2022-11-17T23:12:28.554Z,26.65
2022-11-17T23:14:56.553Z,28.05
2022-11-17T23:17:24.869Z,28.30
2022-11-17T23:19:52.879Z,26.13
2022-11-17T23:22:20.985Z,26.65
2022-11-17T23:25:09.072Z,23.70
2022-11-17T23:27:41.818Z,25.85
2022-11-17T23:32:38.056Z,20.35
2022-11-17T23:35:08.750Z,27.08
2022-11-17T23:37:56.768Z,27.27
2022-11-17T23:40:24.996Z,29.88
2022-11-17T23:42:55.277Z,33.20
2022-11-17T23:45:23.288Z,33.60
2022-11-17T23:47:51.255Z,34.40
2022-11-17T23:50:19.300Z,30.73
2022-11-17T23:52:47.271Z,29.75
2022-11-17T23:55:15.365Z,29.38
2022-11-17T23:57:43.702Z,29.90
